LIPL/QBS METAR and TAF weather

Enter ICAO airport designator
Station Type Date Time Source
LIPL METAR 2024/04/17 17:55 UTC NOAA

LIPL 171755Z 10003KT 9999 SCT050 SCT090 13/08 Q1003


Station Type Date Time Source
LIPL Decoded METAR 2024/04/17 17:55 UTC NOAA

Brescia / Ghedi, Italy (LIPL) 45-25N 010-17E 97M
Apr 17, 2024 - 01:55 PM EDT / 2024.04.17 1755 UTC
Wind: from the E (100 degrees) at 3 MPH (3 KT):0
Visibility: greater than 7 mile(s):0
Sky conditions: partly cloudy
Temperature: 55 F (13 C)
Dew Point: 46 F (8 C)
Relative Humidity: 71%
Pressure (altimeter): 29.62 in. Hg (1003 hPa)
ob: LIPL 171755Z 10003KT 9999 SCT050 SCT090 13/08 Q1003
cycle: 18

Station Type Date Time Source
LIPL TAF 2024/01/11 09:27 UTC NOAA